sensor_id;sensor_type;location;lat;lon;timestamp;temperature;humidity
1337;DHT22;662;48.814;9.318;2023-12-04T00:00:13;-0.50;62.80
1337;DHT22;662;48.814;9.318;2023-12-04T00:02:40;-0.60;62.70
1337;DHT22;662;48.814;9.318;2023-12-04T00:05:06;-0.60;62.50
1337;DHT22;662;48.814;9.318;2023-12-04T00:07:32;-0.60;62.60
1337;DHT22;662;48.814;9.318;2023-12-04T00:09:58;-0.60;62.60
1337;DHT22;662;48.814;9.318;2023-12-04T00:12:23;-0.60;62.60
1337;DHT22;662;48.814;9.318;2023-12-04T00:14:49;-0.60;62.70
1337;DHT22;662;48.814;9.318;2023-12-04T00:17:15;-0.60;62.60
1337;DHT22;662;48.814;9.318;2023-12-04T00:19:40;-0.70;62.50
1337;DHT22;662;48.814;9.318;2023-12-04T00:22:06;-0.70;62.50
1337;DHT22;662;48.814;9.318;2023-12-04T00:24:32;-0.70;62.40
1337;DHT22;662;48.814;9.318;2023-12-04T00:26:57;-0.70;62.50
1337;DHT22;662;48.814;9.318;2023-12-04T00:29:23;-0.70;62.50
1337;DHT22;662;48.814;9.318;2023-12-04T00:31:48;-0.80;62.40
1337;DHT22;662;48.814;9.318;2023-12-04T00:34:14;-0.80;62.50
1337;DHT22;662;48.814;9.318;2023-12-04T00:36:40;-0.80;62.50
1337;DHT22;662;48.814;9.318;2023-12-04T00:39:05;-0.80;62.50
1337;DHT22;662;48.814;9.318;2023-12-04T00:41:31;-0.80;62.40
1337;DHT22;662;48.814;9.318;2023-12-04T00:43:57;-0.90;62.40
1337;DHT22;662;48.814;9.318;2023-12-04T00:46:22;-0.90;62.40
1337;DHT22;662;48.814;9.318;2023-12-04T00:48:48;-0.90;62.60
1337;DHT22;662;48.814;9.318;2023-12-04T00:51:14;-0.90;62.60
1337;DHT22;662;48.814;9.318;2023-12-04T00:53:39;-0.90;62.60
1337;DHT22;662;48.814;9.318;2023-12-04T00:56:05;-0.90;62.70
1337;DHT22;662;48.814;9.318;2023-12-04T00:58:31;-0.90;62.70
1337;DHT22;662;48.814;9.318;2023-12-04T01:00:58;-0.90;62.70
1337;DHT22;662;48.814;9.318;2023-12-04T01:03:25;-0.90;62.80
1337;DHT22;662;48.814;9.318;2023-12-04T01:05:52;-0.90;62.80
1337;DHT22;662;48.814;9.318;2023-12-04T01:08:17;-0.90;62.80
1337;DHT22;662;48.814;9.318;2023-12-04T01:10:43;-1.00;62.70
1337;DHT22;662;48.814;9.318;2023-12-04T01:13:09;-1.00;62.70
1337;DHT22;662;48.814;9.318;2023-12-04T01:15:34;-1.00;62.90
1337;DHT22;662;48.814;9.318;2023-12-04T01:18:00;-1.00;63.10
1337;DHT22;662;48.814;9.318;2023-12-04T01:20:28;-1.00;63.20
1337;DHT22;662;48.814;9.318;2023-12-04T01:22:54;-1.00;63.20
1337;DHT22;662;48.814;9.318;2023-12-04T01:25:19;-1.10;63.20
1337;DHT22;662;48.814;9.318;2023-12-04T01:27:45;-1.00;63.40
1337;DHT22;662;48.814;9.318;2023-12-04T01:30:11;-1.10;63.40
1337;DHT22;662;48.814;9.318;2023-12-04T01:32:37;-1.10;63.60
1337;DHT22;662;48.814;9.318;2023-12-04T01:35:03;-1.10;63.60
1337;DHT22;662;48.814;9.318;2023-12-04T01:37:30;-1.10;63.60
1337;DHT22;662;48.814;9.318;2023-12-04T01:39:55;-1.10;63.60
1337;DHT22;662;48.814;9.318;2023-12-04T01:42:21;-1.10;63.60
1337;DHT22;662;48.814;9.318;2023-12-04T01:44:47;-1.00;63.80
1337;DHT22;662;48.814;9.318;2023-12-04T01:47:12;-1.00;63.70
1337;DHT22;662;48.814;9.318;2023-12-04T01:49:38;-1.00;63.70
1337;DHT22;662;48.814;9.318;2023-12-04T01:52:04;-1.00;63.70
1337;DHT22;662;48.814;9.318;2023-12-04T01:54:31;-1.00;63.70
1337;DHT22;662;48.814;9.318;2023-12-04T01:56:57;-1.00;63.60
1337;DHT22;662;48.814;9.318;2023-12-04T01:59:25;-1.00;63.60
1337;DHT22;662;48.814;9.318;2023-12-04T02:01:52;-1.00;63.60
1337;DHT22;662;48.814;9.318;2023-12-04T02:04:17;-1.00;63.50
1337;DHT22;662;48.814;9.318;2023-12-04T02:06:43;-1.00;63.50
1337;DHT22;662;48.814;9.318;2023-12-04T02:09:09;-1.00;63.40
1337;DHT22;662;48.814;9.318;2023-12-04T02:11:38;-1.00;63.30
1337;DHT22;662;48.814;9.318;2023-12-04T02:14:05;-1.00;63.20
1337;DHT22;662;48.814;9.318;2023-12-04T02:16:32;-1.10;63.00
1337;DHT22;662;48.814;9.318;2023-12-04T02:19:01;-1.00;63.10
1337;DHT22;662;48.814;9.318;2023-12-04T02:21:27;-1.10;63.00
1337;DHT22;662;48.814;9.318;2023-12-04T02:23:53;-1.10;62.90
1337;DHT22;662;48.814;9.318;2023-12-04T02:26:23;-1.10;62.90
1337;DHT22;662;48.814;9.318;2023-12-04T02:28:55;-1.00;63.10
1337;DHT22;662;48.814;9.318;2023-12-04T02:31:24;-1.00;63.10
1337;DHT22;662;48.814;9.318;2023-12-04T02:33:52;-1.10;63.00
1337;DHT22;662;48.814;9.318;2023-12-04T02:36:19;-1.10;62.90
1337;DHT22;662;48.814;9.318;2023-12-04T02:38:46;-1.10;62.90
1337;DHT22;662;48.814;9.318;2023-12-04T02:41:12;-1.10;62.80
1337;DHT22;662;48.814;9.318;2023-12-04T02:43:37;-1.20;62.80
1337;DHT22;662;48.814;9.318;2023-12-04T02:46:03;-1.10;63.00
1337;DHT22;662;48.814;9.318;2023-12-04T02:48:29;-1.20;62.90
1337;DHT22;662;48.814;9.318;2023-12-04T02:50:55;-1.20;62.80
1337;DHT22;662;48.814;9.318;2023-12-04T02:53:20;-1.10;63.00
1337;DHT22;662;48.814;9.318;2023-12-04T02:55:46;-1.20;62.80
1337;DHT22;662;48.814;9.318;2023-12-04T02:58:11;-1.20;62.80
1337;DHT22;662;48.814;9.318;2023-12-04T03:00:37;-1.20;62.70
1337;DHT22;662;48.814;9.318;2023-12-04T03:03:03;-1.20;62.70
1337;DHT22;662;48.814;9.318;2023-12-04T03:05:28;-1.20;62.80
1337;DHT22;662;48.814;9.318;2023-12-04T03:07:57;-1.20;62.80
1337;DHT22;662;48.814;9.318;2023-12-04T03:10:22;-1.20;62.90
1337;DHT22;662;48.814;9.318;2023-12-04T03:12:48;-1.30;62.80
1337;DHT22;662;48.814;9.318;2023-12-04T03:15:14;-1.30;62.80
1337;DHT22;662;48.814;9.318;2023-12-04T03:17:39;-1.30;62.80
1337;DHT22;662;48.814;9.318;2023-12-04T03:20:05;-1.20;63.00
1337;DHT22;662;48.814;9.318;2023-12-04T03:22:34;-1.30;62.90
1337;DHT22;662;48.814;9.318;2023-12-04T03:25:00;-1.30;62.90
1337;DHT22;662;48.814;9.318;2023-12-04T03:27:25;-1.30;63.10
1337;DHT22;662;48.814;9.318;2023-12-04T03:29:51;-1.30;63.10
1337;DHT22;662;48.814;9.318;2023-12-04T03:32:16;-1.30;63.20
1337;DHT22;662;48.814;9.318;2023-12-04T03:34:42;-1.20;63.30
1337;DHT22;662;48.814;9.318;2023-12-04T03:37:07;-1.20;63.30
1337;DHT22;662;48.814;9.318;2023-12-04T03:39:33;-1.30;63.10
1337;DHT22;662;48.814;9.318;2023-12-04T03:41:59;-1.20;63.20
1337;DHT22;662;48.814;9.318;2023-12-04T03:44:25;-1.20;63.20
1337;DHT22;662;48.814;9.318;2023-12-04T03:46:50;-1.20;63.20
1337;DHT22;662;48.814;9.318;2023-12-04T03:49:17;-1.30;63.10
1337;DHT22;662;48.814;9.318;2023-12-04T03:51:42;-1.20;63.10
1337;DHT22;662;48.814;9.318;2023-12-04T03:54:08;-1.20;63.10
1337;DHT22;662;48.814;9.318;2023-12-04T03:56:34;-1.20;62.90
1337;DHT22;662;48.814;9.318;2023-12-04T03:58:59;-1.30;62.90
1337;DHT22;662;48.814;9.318;2023-12-04T04:01:25;-1.30;63.00
1337;DHT22;662;48.814;9.318;2023-12-04T04:03:51;-1.20;63.90
1337;DHT22;662;48.814;9.318;2023-12-04T04:06:16;-1.20;63.30
1337;DHT22;662;48.814;9.318;2023-12-04T04:08:42;-1.20;63.30
1337;DHT22;662;48.814;9.318;2023-12-04T04:11:08;-1.20;63.20
1337;DHT22;662;48.814;9.318;2023-12-04T04:13:33;-1.20;63.00
1337;DHT22;662;48.814;9.318;2023-12-04T04:15:59;-1.20;63.00
1337;DHT22;662;48.814;9.318;2023-12-04T04:18:24;-1.20;63.00
1337;DHT22;662;48.814;9.318;2023-12-04T04:20:50;-1.30;62.80
1337;DHT22;662;48.814;9.318;2023-12-04T04:23:15;-1.30;62.90
1337;DHT22;662;48.814;9.318;2023-12-04T04:25:41;-1.30;63.10
1337;DHT22;662;48.814;9.318;2023-12-04T04:28:07;-1.30;63.20
1337;DHT22;662;48.814;9.318;2023-12-04T04:30:32;-1.20;63.30
1337;DHT22;662;48.814;9.318;2023-12-04T04:32:58;-1.30;63.30
1337;DHT22;662;48.814;9.318;2023-12-04T04:35:23;-1.30;63.30
1337;DHT22;662;48.814;9.318;2023-12-04T04:37:50;-1.30;63.40
1337;DHT22;662;48.814;9.318;2023-12-04T04:40:15;-1.20;63.60
1337;DHT22;662;48.814;9.318;2023-12-04T04:42:42;-1.20;63.70
1337;DHT22;662;48.814;9.318;2023-12-04T04:45:08;-1.20;63.70
1337;DHT22;662;48.814;9.318;2023-12-04T04:47:34;-1.20;63.70
1337;DHT22;662;48.814;9.318;2023-12-04T04:50:00;-1.20;63.70
1337;DHT22;662;48.814;9.318;2023-12-04T04:52:25;-1.20;63.80
1337;DHT22;662;48.814;9.318;2023-12-04T04:54:51;-1.20;63.70
1337;DHT22;662;48.814;9.318;2023-12-04T04:57:17;-1.20;63.80
1337;DHT22;662;48.814;9.318;2023-12-04T04:59:42;-1.20;63.80
1337;DHT22;662;48.814;9.318;2023-12-04T05:02:08;-1.20;63.80
1337;DHT22;662;48.814;9.318;2023-12-04T05:04:33;-1.10;64.00
1337;DHT22;662;48.814;9.318;2023-12-04T05:06:59;-1.10;64.00
1337;DHT22;662;48.814;9.318;2023-12-04T05:09:24;-1.10;64.10
1337;DHT22;662;48.814;9.318;2023-12-04T05:11:50;-1.10;64.10
1337;DHT22;662;48.814;9.318;2023-12-04T05:14:16;-1.10;64.10
1337;DHT22;662;48.814;9.318;2023-12-04T05:16:41;-1.10;64.10
1337;DHT22;662;48.814;9.318;2023-12-04T05:19:07;-1.00;64.20
1337;DHT22;662;48.814;9.318;2023-12-04T05:21:34;-1.00;64.20
1337;DHT22;662;48.814;9.318;2023-12-04T05:23:59;-1.00;64.20
1337;DHT22;662;48.814;9.318;2023-12-04T05:26:25;-1.00;64.20
1337;DHT22;662;48.814;9.318;2023-12-04T05:28:50;-1.00;64.20
1337;DHT22;662;48.814;9.318;2023-12-04T05:31:16;-1.00;64.20
1337;DHT22;662;48.814;9.318;2023-12-04T05:33:41;-1.00;64.20
1337;DHT22;662;48.814;9.318;2023-12-04T05:36:07;-1.00;64.20
1337;DHT22;662;48.814;9.318;2023-12-04T05:38:33;-1.00;64.30
1337;DHT22;662;48.814;9.318;2023-12-04T05:40:59;-1.00;64.30
1337;DHT22;662;48.814;9.318;2023-12-04T05:43:24;-1.00;64.30
1337;DHT22;662;48.814;9.318;2023-12-04T05:45:50;-0.90;64.40
1337;DHT22;662;48.814;9.318;2023-12-04T05:48:15;-0.90;64.50
1337;DHT22;662;48.814;9.318;2023-12-04T05:50:41;-0.90;64.50
1337;DHT22;662;48.814;9.318;2023-12-04T05:53:07;-0.90;64.40
1337;DHT22;662;48.814;9.318;2023-12-04T05:55:33;-0.90;64.40
1337;DHT22;662;48.814;9.318;2023-12-04T05:57:58;-0.90;64.40
1337;DHT22;662;48.814;9.318;2023-12-04T06:00:24;-0.90;64.50
1337;DHT22;662;48.814;9.318;2023-12-04T06:02:50;-0.90;64.50
1337;DHT22;662;48.814;9.318;2023-12-04T06:05:16;-0.90;64.50
1337;DHT22;662;48.814;9.318;2023-12-04T06:07:42;-0.90;64.50
1337;DHT22;662;48.814;9.318;2023-12-04T06:10:08;-0.90;65.30
1337;DHT22;662;48.814;9.318;2023-12-04T06:12:34;-0.80;64.70
1337;DHT22;662;48.814;9.318;2023-12-04T06:15:00;-0.80;64.70
1337;DHT22;662;48.814;9.318;2023-12-04T06:17:26;-0.80;64.70
1337;DHT22;662;48.814;9.318;2023-12-04T06:19:53;-0.70;64.80
1337;DHT22;662;48.814;9.318;2023-12-04T06:22:19;-0.80;64.70
1337;DHT22;662;48.814;9.318;2023-12-04T06:24:47;-0.70;64.80
1337;DHT22;662;48.814;9.318;2023-12-04T06:27:16;-0.70;64.80
1337;DHT22;662;48.814;9.318;2023-12-04T06:29:43;-0.70;64.80
1337;DHT22;662;48.814;9.318;2023-12-04T06:32:09;-0.70;64.80
1337;DHT22;662;48.814;9.318;2023-12-04T06:34:35;-0.70;64.80
1337;DHT22;662;48.814;9.318;2023-12-04T06:37:02;-0.70;64.80
1337;DHT22;662;48.814;9.318;2023-12-04T06:39:32;-0.60;64.80
1337;DHT22;662;48.814;9.318;2023-12-04T06:41:59;-0.60;64.80
1337;DHT22;662;48.814;9.318;2023-12-04T06:44:25;-0.60;64.70
1337;DHT22;662;48.814;9.318;2023-12-04T06:46:51;-0.60;64.60
1337;DHT22;662;48.814;9.318;2023-12-04T06:49:18;-0.60;64.60
1337;DHT22;662;48.814;9.318;2023-12-04T06:51:44;-0.60;64.60
1337;DHT22;662;48.814;9.318;2023-12-04T06:54:10;-0.60;64.60
1337;DHT22;662;48.814;9.318;2023-12-04T06:56:37;-0.60;64.50
1337;DHT22;662;48.814;9.318;2023-12-04T06:59:03;-0.50;64.50
1337;DHT22;662;48.814;9.318;2023-12-04T07:01:29;-0.50;64.50
1337;DHT22;662;48.814;9.318;2023-12-04T07:03:55;-0.50;64.50
1337;DHT22;662;48.814;9.318;2023-12-04T07:06:20;-0.60;64.20
1337;DHT22;662;48.814;9.318;2023-12-04T07:08:46;-0.60;64.20
1337;DHT22;662;48.814;9.318;2023-12-04T07:11:11;-0.60;64.20
1337;DHT22;662;48.814;9.318;2023-12-04T07:13:41;-0.50;64.30
1337;DHT22;662;48.814;9.318;2023-12-04T07:16:07;-0.50;64.30
1337;DHT22;662;48.814;9.318;2023-12-04T07:18:33;-0.50;64.20
1337;DHT22;662;48.814;9.318;2023-12-04T07:21:00;-0.50;64.20
1337;DHT22;662;48.814;9.318;2023-12-04T07:23:26;-0.50;64.20
1337;DHT22;662;48.814;9.318;2023-12-04T07:25:51;-0.50;64.20
1337;DHT22;662;48.814;9.318;2023-12-04T07:28:18;-0.50;64.20
1337;DHT22;662;48.814;9.318;2023-12-04T07:30:43;-0.50;64.10
1337;DHT22;662;48.814;9.318;2023-12-04T07:33:09;-0.50;64.10
1337;DHT22;662;48.814;9.318;2023-12-04T07:35:34;-0.50;64.20
1337;DHT22;662;48.814;9.318;2023-12-04T07:38:00;-0.40;64.20
1337;DHT22;662;48.814;9.318;2023-12-04T07:40:25;-0.40;64.20
1337;DHT22;662;48.814;9.318;2023-12-04T07:42:51;-0.40;64.20
1337;DHT22;662;48.814;9.318;2023-12-04T07:45:17;-0.30;64.20
1337;DHT22;662;48.814;9.318;2023-12-04T07:47:42;-0.30;64.10
1337;DHT22;662;48.814;9.318;2023-12-04T07:50:08;-0.30;64.10
1337;DHT22;662;48.814;9.318;2023-12-04T07:52:34;-0.20;64.10
1337;DHT22;662;48.814;9.318;2023-12-04T07:54:59;-0.20;64.10
1337;DHT22;662;48.814;9.318;2023-12-04T07:57:25;-0.20;64.00
1337;DHT22;662;48.814;9.318;2023-12-04T07:59:51;-0.10;64.10
1337;DHT22;662;48.814;9.318;2023-12-04T08:02:16;-0.10;64.00
1337;DHT22;662;48.814;9.318;2023-12-04T08:04:42;-0.10;63.90
1337;DHT22;662;48.814;9.318;2023-12-04T08:07:08;0.00;63.90
1337;DHT22;662;48.814;9.318;2023-12-04T08:09:33;0.00;63.80
1337;DHT22;662;48.814;9.318;2023-12-04T08:11:59;0.00;63.70
1337;DHT22;662;48.814;9.318;2023-12-04T08:14:24;0.00;63.70
1337;DHT22;662;48.814;9.318;2023-12-04T08:16:50;0.00;63.60
1337;DHT22;662;48.814;9.318;2023-12-04T08:19:16;0.10;63.70
1337;DHT22;662;48.814;9.318;2023-12-04T08:21:41;0.20;63.70
1337;DHT22;662;48.814;9.318;2023-12-04T08:24:07;0.20;63.70
1337;DHT22;662;48.814;9.318;2023-12-04T08:26:33;0.20;63.30
1337;DHT22;662;48.814;9.318;2023-12-04T08:28:59;0.30;63.30
1337;DHT22;662;48.814;9.318;2023-12-04T08:31:24;0.30;63.30
1337;DHT22;662;48.814;9.318;2023-12-04T08:33:50;0.30;63.30
1337;DHT22;662;48.814;9.318;2023-12-04T08:36:16;0.30;63.30
1337;DHT22;662;48.814;9.318;2023-12-04T08:38:41;0.40;63.30
1337;DHT22;662;48.814;9.318;2023-12-04T08:41:07;0.40;63.20
1337;DHT22;662;48.814;9.318;2023-12-04T08:43:33;0.40;63.10
1337;DHT22;662;48.814;9.318;2023-12-04T08:45:58;0.50;63.30
1337;DHT22;662;48.814;9.318;2023-12-04T08:48:25;0.50;63.20
1337;DHT22;662;48.814;9.318;2023-12-04T08:50:51;0.50;63.00
1337;DHT22;662;48.814;9.318;2023-12-04T08:53:17;0.60;63.10
1337;DHT22;662;48.814;9.318;2023-12-04T08:55:42;0.60;63.00
1337;DHT22;662;48.814;9.318;2023-12-04T08:58:08;0.60;63.00
1337;DHT22;662;48.814;9.318;2023-12-04T09:00:33;0.70;63.10
1337;DHT22;662;48.814;9.318;2023-12-04T09:03:02;0.80;63.10
1337;DHT22;662;48.814;9.318;2023-12-04T09:05:27;0.80;63.00
1337;DHT22;662;48.814;9.318;2023-12-04T09:07:53;0.90;62.90
1337;DHT22;662;48.814;9.318;2023-12-04T09:10:18;0.90;62.90
1337;DHT22;662;48.814;9.318;2023-12-04T09:12:44;0.90;62.70
1337;DHT22;662;48.814;9.318;2023-12-04T09:15:11;1.00;62.70
1337;DHT22;662;48.814;9.318;2023-12-04T09:17:37;1.00;62.60
1337;DHT22;662;48.814;9.318;2023-12-04T09:20:03;1.00;62.50
1337;DHT22;662;48.814;9.318;2023-12-04T09:22:31;1.00;62.40
1337;DHT22;662;48.814;9.318;2023-12-04T09:24:57;1.00;62.00
1337;DHT22;662;48.814;9.318;2023-12-04T09:27:23;1.10;62.20
1337;DHT22;662;48.814;9.318;2023-12-04T09:29:48;1.10;62.20
1337;DHT22;662;48.814;9.318;2023-12-04T09:32:14;1.10;62.20
1337;DHT22;662;48.814;9.318;2023-12-04T09:34:39;1.20;62.20
1337;DHT22;662;48.814;9.318;2023-12-04T09:37:05;1.20;62.10
1337;DHT22;662;48.814;9.318;2023-12-04T09:39:31;1.20;62.00
1337;DHT22;662;48.814;9.318;2023-12-04T09:41:56;1.30;61.90
1337;DHT22;662;48.814;9.318;2023-12-04T09:44:24;1.20;61.30
1337;DHT22;662;48.814;9.318;2023-12-04T09:46:51;1.30;61.10
1337;DHT22;662;48.814;9.318;2023-12-04T09:49:17;1.30;61.00
1337;DHT22;662;48.814;9.318;2023-12-04T09:51:44;1.30;60.90
1337;DHT22;662;48.814;9.318;2023-12-04T09:54:10;1.30;60.80
1337;DHT22;662;48.814;9.318;2023-12-04T09:56:37;1.30;60.60
1337;DHT22;662;48.814;9.318;2023-12-04T09:59:06;1.30;60.30
1337;DHT22;662;48.814;9.318;2023-12-04T10:01:33;1.30;60.20
1337;DHT22;662;48.814;9.318;2023-12-04T10:04:01;1.20;60.00
1337;DHT22;662;48.814;9.318;2023-12-04T10:06:30;1.20;59.90
1337;DHT22;662;48.814;9.318;2023-12-04T10:08:57;1.20;59.80
1337;DHT22;662;48.814;9.318;2023-12-04T10:11:24;1.30;59.80
1337;DHT22;662;48.814;9.318;2023-12-04T10:13:50;1.30;59.80
1337;DHT22;662;48.814;9.318;2023-12-04T10:16:36;1.30;59.90
1337;DHT22;662;48.814;9.318;2023-12-04T10:21:42;1.40;59.80
1337;DHT22;662;48.814;9.318;2023-12-04T10:24:07;1.40;59.70
1337;DHT22;662;48.814;9.318;2023-12-04T10:26:34;1.40;59.60
1337;DHT22;662;48.814;9.318;2023-12-04T10:29:01;1.40;59.50
1337;DHT22;662;48.814;9.318;2023-12-04T10:31:31;1.50;59.60
1337;DHT22;662;48.814;9.318;2023-12-04T10:33:57;1.50;59.60
1337;DHT22;662;48.814;9.318;2023-12-04T10:36:22;1.50;59.70
1337;DHT22;662;48.814;9.318;2023-12-04T10:38:58;1.50;59.80
1337;DHT22;662;48.814;9.318;2023-12-04T10:41:24;1.60;59.80
1337;DHT22;662;48.814;9.318;2023-12-04T10:43:50;1.60;59.70
1337;DHT22;662;48.814;9.318;2023-12-04T10:46:16;1.60;59.60
1337;DHT22;662;48.814;9.318;2023-12-04T10:48:43;1.60;59.60
1337;DHT22;662;48.814;9.318;2023-12-04T10:51:12;1.70;59.80
1337;DHT22;662;48.814;9.318;2023-12-04T10:53:38;1.80;59.90
1337;DHT22;662;48.814;9.318;2023-12-04T10:56:09;1.80;59.90
1337;DHT22;662;48.814;9.318;2023-12-04T10:58:36;1.90;60.00
1337;DHT22;662;48.814;9.318;2023-12-04T11:01:06;2.00;60.00
1337;DHT22;662;48.814;9.318;2023-12-04T11:04:00;2.00;59.90
1337;DHT22;662;48.814;9.318;2023-12-04T11:06:29;2.10;59.80
1337;DHT22;662;48.814;9.318;2023-12-04T11:08:56;2.10;59.70
1337;DHT22;662;48.814;9.318;2023-12-04T11:11:36;2.20;59.70
1337;DHT22;662;48.814;9.318;2023-12-04T11:14:08;2.20;59.40
1337;DHT22;662;48.814;9.318;2023-12-04T11:19:32;2.10;59.20
1337;DHT22;662;48.814;9.318;2023-12-04T11:22:00;2.20;59.50
1337;DHT22;662;48.814;9.318;2023-12-04T11:24:27;2.20;59.60
1337;DHT22;662;48.814;9.318;2023-12-04T11:26:54;2.20;59.60
1337;DHT22;662;48.814;9.318;2023-12-04T11:29:20;2.30;59.70
1337;DHT22;662;48.814;9.318;2023-12-04T11:31:47;2.20;59.60
1337;DHT22;662;48.814;9.318;2023-12-04T11:34:12;2.20;59.50
1337;DHT22;662;48.814;9.318;2023-12-04T11:36:38;2.20;59.50
1337;DHT22;662;48.814;9.318;2023-12-04T11:39:09;2.20;59.60
1337;DHT22;662;48.814;9.318;2023-12-04T11:41:36;2.20;59.70
1337;DHT22;662;48.814;9.318;2023-12-04T11:44:03;2.20;59.70
1337;DHT22;662;48.814;9.318;2023-12-04T11:46:29;2.20;59.80
1337;DHT22;662;48.814;9.318;2023-12-04T11:49:26;2.20;59.80
1337;DHT22;662;48.814;9.318;2023-12-04T11:54:14;2.20;60.00
1337;DHT22;662;48.814;9.318;2023-12-04T11:56:40;2.20;60.10
1337;DHT22;662;48.814;9.318;2023-12-04T11:59:07;2.20;60.20
1337;DHT22;662;48.814;9.318;2023-12-04T12:01:38;2.30;60.40
1337;DHT22;662;48.814;9.318;2023-12-04T12:04:08;2.30;61.20
1337;DHT22;662;48.814;9.318;2023-12-04T12:06:35;2.30;60.60
1337;DHT22;662;48.814;9.318;2023-12-04T12:09:01;2.30;60.70
1337;DHT22;662;48.814;9.318;2023-12-04T12:11:27;2.30;60.80
1337;DHT22;662;48.814;9.318;2023-12-04T12:13:53;2.20;60.80
1337;DHT22;662;48.814;9.318;2023-12-04T12:16:19;2.20;60.90
1337;DHT22;662;48.814;9.318;2023-12-04T12:18:46;2.20;61.10
1337;DHT22;662;48.814;9.318;2023-12-04T12:21:12;2.20;61.30
1337;DHT22;662;48.814;9.318;2023-12-04T12:23:38;2.20;61.60
1337;DHT22;662;48.814;9.318;2023-12-04T12:26:03;2.20;61.80
1337;DHT22;662;48.814;9.318;2023-12-04T12:28:29;2.20;62.00
1337;DHT22;662;48.814;9.318;2023-12-04T12:30:55;2.20;62.10
1337;DHT22;662;48.814;9.318;2023-12-04T12:33:21;2.30;62.30
1337;DHT22;662;48.814;9.318;2023-12-04T12:35:48;2.30;62.30
1337;DHT22;662;48.814;9.318;2023-12-04T12:38:14;2.30;62.30
1337;DHT22;662;48.814;9.318;2023-12-04T12:40:40;2.40;62.30
1337;DHT22;662;48.814;9.318;2023-12-04T12:43:06;2.40;62.30
1337;DHT22;662;48.814;9.318;2023-12-04T12:45:40;2.30;62.00
1337;DHT22;662;48.814;9.318;2023-12-04T12:48:09;2.40;61.90
1337;DHT22;662;48.814;9.318;2023-12-04T12:50:35;2.40;61.90
1337;DHT22;662;48.814;9.318;2023-12-04T12:53:02;2.40;61.90
1337;DHT22;662;48.814;9.318;2023-12-04T12:55:27;2.40;61.90
1337;DHT22;662;48.814;9.318;2023-12-04T12:57:56;2.40;61.90
1337;DHT22;662;48.814;9.318;2023-12-04T13:00:22;2.50;62.00
1337;DHT22;662;48.814;9.318;2023-12-04T13:02:48;2.40;61.90
1337;DHT22;662;48.814;9.318;2023-12-04T13:05:14;2.50;61.90
1337;DHT22;662;48.814;9.318;2023-12-04T13:07:39;2.50;61.90
1337;DHT22;662;48.814;9.318;2023-12-04T13:10:07;2.50;61.80
1337;DHT22;662;48.814;9.318;2023-12-04T13:12:34;2.40;61.90
1337;DHT22;662;48.814;9.318;2023-12-04T13:15:01;2.40;62.00
1337;DHT22;662;48.814;9.318;2023-12-04T13:17:26;2.40;62.10
1337;DHT22;662;48.814;9.318;2023-12-04T13:19:52;2.40;62.30
1337;DHT22;662;48.814;9.318;2023-12-04T13:22:18;2.40;62.40
1337;DHT22;662;48.814;9.318;2023-12-04T13:24:43;2.50;62.70
1337;DHT22;662;48.814;9.318;2023-12-04T13:27:09;2.50;62.80
1337;DHT22;662;48.814;9.318;2023-12-04T13:29:34;2.50;62.90
1337;DHT22;662;48.814;9.318;2023-12-04T13:32:00;2.50;63.00
1337;DHT22;662;48.814;9.318;2023-12-04T13:34:26;2.50;63.10
1337;DHT22;662;48.814;9.318;2023-12-04T13:36:51;2.50;63.30
1337;DHT22;662;48.814;9.318;2023-12-04T13:39:17;2.50;63.50
1337;DHT22;662;48.814;9.318;2023-12-04T13:41:46;2.50;64.20
1337;DHT22;662;48.814;9.318;2023-12-04T13:44:30;2.50;63.40
1337;DHT22;662;48.814;9.318;2023-12-04T13:46:56;2.50;63.50
1337;DHT22;662;48.814;9.318;2023-12-04T13:49:21;2.40;63.60
1337;DHT22;662;48.814;9.318;2023-12-04T13:51:47;2.40;63.70
1337;DHT22;662;48.814;9.318;2023-12-04T13:54:15;2.50;63.80
1337;DHT22;662;48.814;9.318;2023-12-04T13:56:48;2.40;63.80
1337;DHT22;662;48.814;9.318;2023-12-04T13:59:20;2.50;63.90
1337;DHT22;662;48.814;9.318;2023-12-04T14:01:47;2.40;63.90
1337;DHT22;662;48.814;9.318;2023-12-04T14:04:15;2.50;64.00
1337;DHT22;662;48.814;9.318;2023-12-04T14:06:40;2.50;64.00
1337;DHT22;662;48.814;9.318;2023-12-04T14:09:06;2.50;64.00
1337;DHT22;662;48.814;9.318;2023-12-04T14:11:38;2.50;64.00
1337;DHT22;662;48.814;9.318;2023-12-04T14:14:04;2.50;64.10
1337;DHT22;662;48.814;9.318;2023-12-04T14:16:30;2.50;64.20
1337;DHT22;662;48.814;9.318;2023-12-04T14:18:56;2.50;64.20
1337;DHT22;662;48.814;9.318;2023-12-04T14:21:22;2.50;64.40
1337;DHT22;662;48.814;9.318;2023-12-04T14:23:48;2.50;64.50
1337;DHT22;662;48.814;9.318;2023-12-04T14:26:14;2.50;64.50
1337;DHT22;662;48.814;9.318;2023-12-04T14:28:39;2.50;64.60
1337;DHT22;662;48.814;9.318;2023-12-04T14:31:06;2.50;64.70
1337;DHT22;662;48.814;9.318;2023-12-04T14:33:33;2.60;64.80
1337;DHT22;662;48.814;9.318;2023-12-04T14:35:58;2.60;64.80
1337;DHT22;662;48.814;9.318;2023-12-04T14:38:24;2.70;65.00
1337;DHT22;662;48.814;9.318;2023-12-04T14:40:50;2.60;64.80
1337;DHT22;662;48.814;9.318;2023-12-04T14:43:16;2.70;65.00
1337;DHT22;662;48.814;9.318;2023-12-04T14:45:41;2.70;65.10
1337;DHT22;662;48.814;9.318;2023-12-04T14:48:07;2.60;65.00
1337;DHT22;662;48.814;9.318;2023-12-04T14:50:33;2.60;65.00
1337;DHT22;662;48.814;9.318;2023-12-04T14:53:01;2.60;65.10
1337;DHT22;662;48.814;9.318;2023-12-04T14:55:41;2.60;65.10
1337;DHT22;662;48.814;9.318;2023-12-04T14:58:25;2.60;65.20
1337;DHT22;662;48.814;9.318;2023-12-04T15:00:53;2.60;65.20
1337;DHT22;662;48.814;9.318;2023-12-04T15:03:19;2.60;65.30
1337;DHT22;662;48.814;9.318;2023-12-04T15:06:10;2.60;65.40
1337;DHT22;662;48.814;9.318;2023-12-04T15:08:39;2.50;65.40
1337;DHT22;662;48.814;9.318;2023-12-04T15:11:23;2.50;65.50
1337;DHT22;662;48.814;9.318;2023-12-04T15:14:07;2.50;65.60
1337;DHT22;662;48.814;9.318;2023-12-04T15:16:51;2.50;65.70
1337;DHT22;662;48.814;9.318;2023-12-04T15:19:27;2.50;65.90
1337;DHT22;662;48.814;9.318;2023-12-04T15:22:02;2.50;65.90
1337;DHT22;662;48.814;9.318;2023-12-04T15:24:28;2.50;66.10
1337;DHT22;662;48.814;9.318;2023-12-04T15:26:53;2.50;66.00
1337;DHT22;662;48.814;9.318;2023-12-04T15:29:19;2.50;66.10
1337;DHT22;662;48.814;9.318;2023-12-04T15:31:48;2.50;66.10
1337;DHT22;662;48.814;9.318;2023-12-04T15:34:14;2.50;66.20
1337;DHT22;662;48.814;9.318;2023-12-04T15:36:40;2.60;66.30
1337;DHT22;662;48.814;9.318;2023-12-04T15:39:05;2.60;66.30
1337;DHT22;662;48.814;9.318;2023-12-04T15:41:31;2.60;66.40
1337;DHT22;662;48.814;9.318;2023-12-04T15:43:57;2.60;66.40
1337;DHT22;662;48.814;9.318;2023-12-04T15:46:23;2.60;66.50
1337;DHT22;662;48.814;9.318;2023-12-04T15:48:50;2.60;67.30
1337;DHT22;662;48.814;9.318;2023-12-04T15:51:16;2.60;66.60
1337;DHT22;662;48.814;9.318;2023-12-04T15:53:42;2.60;67.40
1337;DHT22;662;48.814;9.318;2023-12-04T15:56:08;2.60;66.70
1337;DHT22;662;48.814;9.318;2023-12-04T15:58:34;2.70;66.80
1337;DHT22;662;48.814;9.318;2023-12-04T16:01:03;2.70;66.80
1337;DHT22;662;48.814;9.318;2023-12-04T16:03:31;2.70;66.90
1337;DHT22;662;48.814;9.318;2023-12-04T16:05:56;2.70;66.80
1337;DHT22;662;48.814;9.318;2023-12-04T16:08:22;2.70;66.80
1337;DHT22;662;48.814;9.318;2023-12-04T16:10:47;2.70;66.90
1337;DHT22;662;48.814;9.318;2023-12-04T16:13:13;2.70;67.00
1337;DHT22;662;48.814;9.318;2023-12-04T16:15:42;2.80;67.00
1337;DHT22;662;48.814;9.318;2023-12-04T16:18:11;2.80;67.00
1337;DHT22;662;48.814;9.318;2023-12-04T16:20:37;2.80;67.00
1337;DHT22;662;48.814;9.318;2023-12-04T16:23:03;2.80;67.00
1337;DHT22;662;48.814;9.318;2023-12-04T16:25:28;2.80;66.90
1337;DHT22;662;48.814;9.318;2023-12-04T16:27:54;2.80;67.00
1337;DHT22;662;48.814;9.318;2023-12-04T16:30:23;2.80;67.00